Time;durP1;ratioP1;P1;durP2;ratioP2;P2;SDS_P1;SDS_P2;PMS_P1;PMS_P2;Temp;Humidity;BMP_temperature;BMP_pressure;BME280_temperature;BME280_humidity;BME280_pressure;Samples;Min_cycle;Max_cycle;Signal;HPM_P1;HPM_P2
2023/03/10 00:01:56;;;;;;;36.45;20.08;;;;;;;7.14;63.04;99169.13;5087906;27;98717;-73
2023/03/10 00:04:22;;;;;;;36.55;18.60;;;;;;;7.61;61.94;99165.09;5079852;27;99499;-72
2023/03/10 00:06:49;;;;;;;36.90;18.00;;;;;;;7.80;61.25;99161.59;5083560;27;98449;-72
2023/03/10 00:09:15;;;;;;;35.72;18.08;;;;;;;7.74;61.33;99167.16;5079099;27;97650;-72
2023/03/10 00:11:42;;;;;;;38.38;20.05;;;;;;;7.70;61.13;99161.16;5074911;27;98759;-71
2023/03/10 00:14:09;;;;;;;39.15;20.15;;;;;;;7.74;61.16;99152.22;5083953;27;99260;-72
2023/03/10 00:16:35;;;;;;;34.45;18.23;;;;;;;8.07;60.38;99140.94;5077262;27;97609;-72
2023/03/10 00:19:02;;;;;;;36.65;18.40;;;;;;;8.23;59.88;99134.81;5083714;27;96761;-72
2023/03/10 00:21:31;;;;;;;36.75;17.95;;;;;;;8.08;59.97;99135.59;5080339;27;96910;-72
2023/03/10 00:23:57;;;;;;;34.88;18.33;;;;;;;7.89;60.51;99135.66;5080743;27;98827;-72
2023/03/10 00:26:26;;;;;;;35.83;18.67;;;;;;;7.84;60.82;99137.69;5086180;27;99241;-73
2023/03/10 00:28:54;;;;;;;36.05;18.67;;;;;;;7.95;60.63;99134.50;5084288;27;97380;-71
2023/03/10 00:31:23;;;;;;;32.05;16.95;;;;;;;7.99;59.99;99128.19;5074088;27;96816;-72
2023/03/10 00:33:50;;;;;;;33.58;17.75;;;;;;;7.91;60.42;99112.78;5075255;27;99200;-72
2023/03/10 00:36:19;;;;;;;35.00;18.50;;;;;;;8.06;59.87;99123.47;5082220;27;98758;-73
2023/03/10 00:38:47;;;;;;;33.47;17.88;;;;;;;8.03;59.63;99116.56;5078613;27;97090;-73
2023/03/10 00:41:15;;;;;;;31.98;17.10;;;;;;;8.11;59.53;99103.03;5080035;27;97432;-72
2023/03/10 00:43:42;;;;;;;33.45;17.10;;;;;;;8.08;59.91;99092.66;5082420;27;99580;-72
2023/03/10 00:46:11;;;;;;;31.50;16.65;;;;;;;7.88;60.20;99085.78;5086225;27;99022;-73
2023/03/10 00:48:38;;;;;;;30.20;16.60;;;;;;;7.72;60.59;99084.84;5079811;27;97203;-73
2023/03/10 00:51:06;;;;;;;27.90;16.02;;;;;;;8.04;60.28;99084.06;5078584;27;97020;-73
2023/03/10 00:53:34;;;;;;;32.00;16.73;;;;;;;7.88;60.39;99080.50;5074716;27;101325;-74
2023/03/10 00:56:02;;;;;;;29.33;15.88;;;;;;;7.99;60.43;99080.84;5090149;27;97487;-73
2023/03/10 00:58:29;;;;;;;31.42;16.40;;;;;;;8.08;59.80;99075.09;5080655;27;97320;-73
2023/03/10 01:00:56;;;;;;;30.85;16.85;;;;;;;7.99;60.08;99065.91;5082893;27;97165;-73
2023/03/10 01:03:25;;;;;;;31.88;16.42;;;;;;;7.89;60.18;99058.53;5082877;27;98608;-73
2023/03/10 01:05:52;;;;;;;30.92;16.48;;;;;;;7.96;60.09;99045.00;5085359;27;99716;-73
2023/03/10 01:08:19;;;;;;;33.75;17.63;;;;;;;7.84;60.35;99040.38;5083371;27;97630;-73
2023/03/10 01:10:46;;;;;;;31.92;16.73;;;;;;;7.77;60.79;99038.16;5084670;27;97010;-74
2023/03/10 01:13:13;;;;;;;28.40;15.68;;;;;;;7.92;60.53;99027.69;5078881;27;97556;-73
2023/03/10 01:15:43;;;;;;;30.38;17.00;;;;;;;7.91;60.29;99014.63;5080046;27;98889;-73
2023/03/10 01:18:09;;;;;;;33.40;16.85;;;;;;;7.67;61.03;99015.91;5083017;27;97685;-73
2023/03/10 01:20:40;;;;;;;31.60;17.02;;;;;;;7.88;60.60;98998.97;5079479;27;98008;-73
2023/03/10 01:23:06;;;;;;;29.77;15.90;;;;;;;7.80;60.73;98998.56;5087623;27;99282;-73
2023/03/10 01:25:33;;;;;;;33.53;16.60;;;;;;;7.76;60.75;98997.00;5078516;27;101316;-73
2023/03/10 01:27:59;;;;;;;29.52;16.00;;;;;;;7.89;60.66;98979.66;5080702;27;98939;-72
2023/03/10 01:30:26;;;;;;;29.48;15.85;;;;;;;7.88;60.72;98980.56;5083190;27;98674;-74
2023/03/10 01:32:52;;;;;;;33.53;16.20;;;;;;;7.87;60.96;98978.91;5077216;27;101027;-74
2023/03/10 01:35:19;;;;;;;30.95;16.17;;;;;;;7.97;60.69;98980.97;5080645;27;98063;-73
2023/03/10 01:37:47;;;;;;;30.90;15.65;;;;;;;7.76;61.17;98975.97;5082677;27;98191;-72
2023/03/10 01:40:17;;;;;;;34.47;15.85;;;;;;;7.95;60.55;98968.81;5083213;27;96714;-74
2023/03/10 01:42:44;;;;;;;31.02;16.40;;;;;;;7.97;60.33;98965.19;5079267;27;98889;-72
2023/03/10 01:45:49;;;;;;;28.83;14.82;;;;;;;7.81;60.43;98955.56;5081503;27;98828;-74
2023/03/10 01:48:17;;;;;;;27.67;14.38;;;;;;;7.74;61.02;98951.56;5091075;27;96751;-73
2023/03/10 01:50:46;;;;;;;29.25;14.57;;;;;;;7.84;60.80;98942.25;5074031;27;96755;-72
2023/03/10 01:53:16;;;;;;;30.60;14.75;;;;;;;7.65;61.06;98934.47;5082386;27;98919;-74
2023/03/10 01:55:47;;;;;;;28.90;15.48;;;;;;;7.85;60.74;98928.16;5083411;27;101922;-72
2023/03/10 01:58:15;;;;;;;26.45;13.90;;;;;;;7.88;60.72;98923.56;5087295;27;96815;-74
2023/03/10 02:00:43;;;;;;;28.45;14.30;;;;;;;7.76;61.06;98913.72;5085185;27;99513;-74
2023/03/10 02:03:14;;;;;;;30.23;15.15;;;;;;;7.97;60.75;98909.09;5081210;27;98327;-74
2023/03/10 02:05:45;;;;;;;26.67;14.00;;;;;;;8.00;60.39;98911.56;5076797;27;99120;-72
2023/03/10 02:08:14;;;;;;;26.05;12.63;;;;;;;7.97;60.78;98896.78;5076961;27;99361;-73
2023/03/10 02:10:40;;;;;;;27.60;13.77;;;;;;;7.78;60.81;98889.97;5077939;27;97133;-73
2023/03/10 02:13:07;;;;;;;29.25;14.25;;;;;;;7.92;60.84;98892.72;5082686;27;98924;-72
2023/03/10 02:15:34;;;;;;;25.98;12.85;;;;;;;7.76;61.38;98887.41;5074463;27;99755;-73
2023/03/10 02:18:02;;;;;;;26.60;13.63;;;;;;;7.85;61.14;98871.16;5077693;27;98690;-72
2023/03/10 02:20:37;;;;;;;24.58;13.00;;;;;;;7.74;61.46;98872.69;5079049;27;97256;-72
2023/03/10 02:23:03;;;;;;;24.33;12.75;;;;;;;7.88;61.19;98862.25;5077045;27;98668;-72
2023/03/10 02:25:40;;;;;;;27.00;13.32;;;;;;;7.93;60.77;98852.34;5078363;27;98818;-72
2023/03/10 02:28:08;;;;;;;26.08;12.43;;;;;;;7.94;60.76;98839.09;5074515;27;97525;-72
2023/03/10 02:30:37;;;;;;;24.95;12.82;;;;;;;7.83;61.42;98837.97;5081757;27;97312;-72
2023/03/10 02:33:06;;;;;;;22.08;12.13;;;;;;;7.66;61.83;98822.28;5088927;27;99003;-73
2023/03/10 02:35:33;;;;;;;27.83;13.55;;;;;;;7.80;61.85;98819.75;5084232;27;99199;-73
2023/03/10 02:37:59;;;;;;;25.70;12.25;;;;;;;7.94;61.34;98817.22;5086138;27;96910;-73
2023/03/10 02:40:33;;;;;;;25.80;13.63;;;;;;;7.83;61.97;98803.81;5087020;27;97095;-73
2023/03/10 02:43:02;;;;;;;27.80;12.85;;;;;;;7.77;62.12;98798.88;5083077;27;98923;-73
2023/03/10 02:45:32;;;;;;;28.15;13.98;;;;;;;7.82;61.94;98804.72;5077859;27;98791;-72
2023/03/10 02:47:59;;;;;;;27.75;13.15;;;;;;;7.81;61.95;98787.28;5079820;27;97583;-73
2023/03/10 02:50:29;;;;;;;28.85;13.43;;;;;;;7.72;62.33;98787.78;5080923;27;96742;-73
2023/03/10 02:53:03;;;;;;;25.65;14.00;;;;;;;7.92;61.98;98782.25;5075488;27;98824;-73
2023/03/10 02:55:29;;;;;;;25.00;12.60;;;;;;;7.67;62.84;98776.66;5083092;27;98920;-72
2023/03/10 02:57:56;;;;;;;24.60;11.95;;;;;;;7.88;61.73;98767.56;5083049;27;96764;-73
2023/03/10 03:00:22;;;;;;;24.58;11.98;;;;;;;7.85;61.82;98765.97;5083719;27;98982;-72
2023/03/10 03:02:50;;;;;;;23.55;12.43;;;;;;;7.94;61.73;98760.19;5082673;27;99625;-71
2023/03/10 03:05:16;;;;;;;22.23;12.05;;;;;;;7.90;61.48;98756.03;5082170;27;99496;-72
2023/03/10 03:07:43;;;;;;;22.98;11.38;;;;;;;8.04;61.31;98759.69;5083454;27;96937;-73
2023/03/10 03:10:10;;;;;;;22.48;11.90;;;;;;;7.75;61.93;98756.03;5080252;27;98210;-72
2023/03/10 03:12:36;;;;;;;24.73;11.95;;;;;;;7.98;61.82;98753.84;5083612;27;99679;-72
2023/03/10 03:15:03;;;;;;;22.40;11.57;;;;;;;8.09;61.08;98744.47;5081479;27;97603;-73
2023/03/10 03:17:30;;;;;;;24.58;12.20;;;;;;;7.93;61.90;98749.78;5085372;27;98894;-72
2023/03/10 03:19:58;;;;;;;22.20;12.05;;;;;;;8.22;61.23;98754.22;5084340;27;97240;-71
2023/03/10 03:22:24;;;;;;;20.63;11.30;;;;;;;8.29;60.72;98745.03;5082836;27;98791;-73
2023/03/10 03:24:51;;;;;;;20.23;10.55;;;;;;;8.21;60.79;98741.16;5087301;27;98855;-72
2023/03/10 03:27:17;;;;;;;21.00;11.65;;;;;;;8.05;61.49;98720.16;5090533;27;99268;-73
2023/03/10 03:29:44;;;;;;;20.17;10.48;;;;;;;8.14;61.48;98718.78;5087816;27;96715;-72
2023/03/10 03:32:10;;;;;;;17.45;9.38;;;;;;;8.09;61.36;98707.66;5073593;27;98974;-71
2023/03/10 03:34:36;;;;;;;18.98;10.23;;;;;;;7.73;62.18;98692.22;5084118;27;100724;-72
2023/03/10 03:37:04;;;;;;;17.02;9.63;;;;;;;8.04;61.38;98702.66;5090075;27;97196;-71
2023/03/10 03:39:31;;;;;;;16.05;9.10;;;;;;;8.05;61.37;98708.78;5075368;27;97338;-74
2023/03/10 03:41:57;;;;;;;16.63;9.13;;;;;;;8.08;61.25;98700.69;5085421;27;98813;-72
2023/03/10 03:44:23;;;;;;;17.73;9.15;;;;;;;7.87;61.65;98689.66;5078025;27;99378;-72
2023/03/10 03:46:50;;;;;;;16.23;8.65;;;;;;;7.79;61.94;98681.34;5076373;27;96794;-72
2023/03/10 03:49:16;;;;;;;17.50;9.77;;;;;;;7.65;61.93;98674.22;5081274;27;98549;-71
2023/03/10 03:51:42;;;;;;;18.75;9.48;;;;;;;7.60;62.44;98682.38;5081760;27;97175;-72
2023/03/10 03:54:10;;;;;;;18.38;9.60;;;;;;;7.88;61.59;98675.53;5078561;27;98821;-72
2023/03/10 03:56:36;;;;;;;16.30;8.85;;;;;;;7.91;61.92;98662.22;5078848;27;99356;-71
2023/03/10 03:59:03;;;;;;;18.88;9.93;;;;;;;8.05;61.84;98657.03;5085056;27;98672;-71
2023/03/10 04:01:29;;;;;;;16.38;9.50;;;;;;;7.74;62.35;98654.47;5074453;27;97884;-71
2023/03/10 04:03:55;;;;;;;17.02;9.18;;;;;;;7.95;61.82;98640.91;5081570;27;102490;-71
2023/03/10 04:06:22;;;;;;;16.23;7.93;;;;;;;7.85;61.78;98642.41;5074303;27;97743;-72
2023/03/10 04:08:49;;;;;;;14.93;7.68;;;;;;;7.95;61.37;98640.91;5087656;27;97197;-72
2023/03/10 04:11:16;;;;;;;11.95;7.28;;;;;;;8.02;61.41;98629.09;5076710;27;101378;-71
2023/03/10 04:13:43;;;;;;;12.88;7.90;;;;;;;7.85;61.81;98637.13;5083629;27;98847;-74
2023/03/10 04:16:09;;;;;;;16.38;8.27;;;;;;;7.84;61.84;98627.56;5078294;27;98075;-72
2023/03/10 04:18:36;;;;;;;13.45;7.63;;;;;;;7.82;61.90;98624.16;5087049;27;96912;-75
2023/03/10 04:21:02;;;;;;;13.90;7.28;;;;;;;7.92;61.71;98627.97;5083892;27;99031;-73
2023/03/10 04:23:29;;;;;;;14.02;7.75;;;;;;;7.79;61.98;98626.13;5084923;27;101978;-74
2023/03/10 04:25:56;;;;;;;14.00;8.25;;;;;;;7.85;62.53;98634.50;5080706;27;97347;-74
2023/03/10 04:28:24;;;;;;;17.00;8.10;;;;;;;8.05;62.08;98622.81;5080981;27;97136;-75
2023/03/10 04:30:50;;;;;;;17.63;8.90;;;;;;;7.77;62.34;98609.59;5082701;27;98854;-75
2023/03/10 04:33:17;;;;;;;17.67;7.85;;;;;;;8.00;62.27;98607.31;5081553;27;98797;-75
2023/03/10 04:35:46;;;;;;;13.85;8.35;;;;;;;8.09;62.00;98626.09;5077353;27;96970;-71
2023/03/10 04:38:13;;;;;;;12.65;7.45;;;;;;;7.81;62.41;98619.00;5077307;27;99409;-73
2023/03/10 04:40:39;;;;;;;14.65;8.32;;;;;;;8.05;62.11;98614.94;5079986;27;97760;-73
2023/03/10 04:43:06;;;;;;;14.63;8.15;;;;;;;8.03;62.34;98603.66;5087154;27;99018;-73
2023/03/10 04:45:33;;;;;;;15.77;9.00;;;;;;;8.03;62.36;98595.75;5075764;27;97363;-73
2023/03/10 04:48:00;;;;;;;15.10;8.95;;;;;;;8.09;62.56;98605.06;5080777;27;99464;-73
2023/03/10 04:50:26;;;;;;;12.18;7.72;;;;;;;7.79;62.99;98610.34;5081017;27;99278;-71
2023/03/10 04:52:53;;;;;;;14.43;7.90;;;;;;;7.91;62.73;98612.25;5084664;27;99264;-71
2023/03/10 04:55:19;;;;;;;13.15;8.32;;;;;;;8.09;62.31;98600.66;5080746;27;99242;-71
2023/03/10 04:57:45;;;;;;;14.15;7.95;;;;;;;8.03;62.48;98590.50;5083278;27;96866;-71
2023/03/10 05:00:12;;;;;;;13.93;7.82;;;;;;;8.22;61.87;98582.34;5077905;27;99103;-71
2023/03/10 05:02:41;;;;;;;13.88;7.85;;;;;;;8.14;62.22;98577.53;5080008;27;101813;-73
2023/03/10 05:05:08;;;;;;;13.25;8.13;;;;;;;7.83;62.77;98575.91;5082716;27;96838;-72
2023/03/10 05:07:34;;;;;;;16.63;8.20;;;;;;;8.25;61.85;98572.50;5080937;27;98620;-71
2023/03/10 05:10:01;;;;;;;13.77;8.25;;;;;;;8.23;61.77;98558.59;5079500;27;98876;-72
2023/03/10 05:12:27;;;;;;;13.68;8.38;;;;;;;8.36;61.52;98559.56;5083878;27;98817;-71
2023/03/10 05:14:54;;;;;;;12.60;7.65;;;;;;;8.44;61.14;98547.72;5086364;27;97541;-72
2023/03/10 05:17:20;;;;;;;14.35;8.27;;;;;;;8.44;61.08;98547.72;5080328;27;96734;-72
2023/03/10 05:19:48;;;;;;;12.40;7.05;;;;;;;8.44;61.11;98548.56;5073218;27;101524;-73
2023/03/10 05:22:14;;;;;;;12.15;6.90;;;;;;;8.02;62.39;98544.94;5081535;27;98902;-72
2023/03/10 05:24:41;;;;;;;16.67;9.20;;;;;;;8.06;62.15;98532.47;5077229;27;96776;-73
2023/03/10 05:27:09;;;;;;;15.52;7.90;;;;;;;8.28;61.78;98532.84;5082573;27;98652;-72
2023/03/10 05:29:38;;;;;;;12.73;7.15;;;;;;;8.23;61.49;98534.06;5089145;27;99012;-74
2023/03/10 05:32:04;;;;;;;13.55;7.88;;;;;;;8.25;61.73;98535.69;5074181;27;98787;-73
2023/03/10 05:34:31;;;;;;;12.80;7.68;;;;;;;8.24;61.29;98533.97;5079912;27;96674;-74
2023/03/10 05:36:59;;;;;;;14.60;8.45;;;;;;;8.30;61.52;98524.84;5077487;27;96814;-73
2023/03/10 05:39:25;;;;;;;12.30;8.10;;;;;;;8.30;61.71;98512.59;5086855;27;98856;-73
2023/03/10 05:41:52;;;;;;;11.93;7.82;;;;;;;8.29;61.87;98524.00;5084849;27;98774;-71
2023/03/10 05:44:18;;;;;;;13.40;7.57;;;;;;;8.48;61.38;98522.91;5074530;27;97345;-73
2023/03/10 05:46:44;;;;;;;13.65;8.38;;;;;;;8.37;61.65;98507.78;5076841;27;96962;-72
2023/03/10 05:49:11;;;;;;;14.82;8.52;;;;;;;8.45;61.45;98504.69;5089394;27;98933;-74
2023/03/10 05:51:37;;;;;;;13.70;8.13;;;;;;;8.51;61.26;98496.41;5075867;27;101259;-72
2023/03/10 05:54:05;;;;;;;15.45;8.85;;;;;;;8.45;61.46;98502.91;5078396;27;97182;-73
2023/03/10 05:56:32;;;;;;;14.68;8.40;;;;;;;8.48;61.32;98507.09;5085182;27;96827;-73
2023/03/10 05:58:58;;;;;;;13.48;7.47;;;;;;;8.32;61.78;98504.59;5085287;27;99154;-74
2023/03/10 06:01:36;;;;;;;14.35;7.47;;;;;;;8.23;61.95;98503.34;5082136;27;98881;-74
2023/03/10 06:04:02;;;;;;;13.50;8.55;;;;;;;8.51;61.43;98497.25;5077802;27;97414;-73
2023/03/10 06:06:29;;;;;;;13.18;7.82;;;;;;;8.07;63.08;98504.38;5086806;27;97803;-73
2023/03/10 06:09:02;;;;;;;14.73;8.85;;;;;;;8.44;62.00;98495.09;5076144;27;99015;-74
2023/03/10 06:11:30;;;;;;;12.45;7.95;;;;;;;8.51;61.92;98493.78;5079684;27;98166;-74
2023/03/10 06:13:56;;;;;;;17.75;9.52;;;;;;;8.49;61.95;98495.66;5075464;27;96743;-74
2023/03/10 06:16:22;;;;;;;14.98;9.32;;;;;;;8.70;61.39;98491.66;5086431;27;96815;-72
2023/03/10 06:18:53;;;;;;;20.52;11.00;;;;;;;8.60;61.57;98498.47;5085234;27;96973;-74
2023/03/10 06:21:20;;;;;;;16.80;9.95;;;;;;;8.68;61.36;98493.53;5076903;27;101395;-72
2023/03/10 06:23:46;;;;;;;14.68;8.75;;;;;;;8.63;61.42;98487.72;5085900;27;97599;-74
2023/03/10 06:26:18;;;;;;;14.18;9.13;;;;;;;8.65;61.64;98488.50;5074576;27;97112;-73
2023/03/10 06:28:46;;;;;;;16.52;9.27;;;;;;;8.93;60.71;98493.66;5085290;27;98835;-73
2023/03/10 06:31:19;;;;;;;27.92;14.60;;;;;;;8.88;60.86;98489.66;5081587;27;98845;-73
2023/03/10 06:33:45;;;;;;;15.20;9.48;;;;;;;8.49;61.88;98482.50;5081729;27;97631;-73
2023/03/10 06:36:13;;;;;;;15.40;8.93;;;;;;;8.90;61.11;98482.50;5084049;27;98620;-72
2023/03/10 06:38:40;;;;;;;16.48;9.55;;;;;;;8.93;60.92;98477.03;5077451;27;97691;-73
2023/03/10 06:41:07;;;;;;;14.48;8.20;;;;;;;8.84;61.19;98475.84;5083476;27;98938;-72
2023/03/10 06:43:34;;;;;;;13.13;8.73;;;;;;;8.90;61.15;98471.97;5076498;27;96806;-74
2023/03/10 06:46:05;;;;;;;14.68;8.73;;;;;;;8.71;61.33;98475.78;5086500;27;96780;-73
2023/03/10 06:48:32;;;;;;;15.77;9.13;;;;;;;8.90;60.99;98474.59;5077929;27;98896;-73
2023/03/10 06:50:59;;;;;;;13.95;8.40;;;;;;;8.86;61.17;98481.84;5074628;27;99212;-72
2023/03/10 06:53:26;;;;;;;15.23;9.70;;;;;;;8.90;61.28;98482.50;5074394;27;96960;-74
2023/03/10 06:55:57;;;;;;;13.20;8.20;;;;;;;8.83;61.62;98474.16;5070088;27;98756;-73
2023/03/10 06:58:24;;;;;;;14.50;9.13;;;;;;;9.13;60.95;98469.50;5074494;27;98973;-74
2023/03/10 07:00:50;;;;;;;14.07;8.07;;;;;;;9.03;61.00;98463.16;5069594;27;99181;-74
2023/03/10 07:03:18;;;;;;;15.23;8.48;;;;;;;8.98;61.43;98475.81;5075227;27;96770;-73
2023/03/10 07:05:44;;;;;;;13.23;8.20;;;;;;;9.03;61.62;98465.81;5077492;27;97147;-74
2023/03/10 07:08:11;;;;;;;16.40;8.68;;;;;;;9.08;61.87;98461.06;5072832;27;97440;-74
2023/03/10 07:10:37;;;;;;;14.57;9.27;;;;;;;9.03;61.87;98464.97;5080131;27;99055;-74
2023/03/10 07:13:04;;;;;;;15.73;9.13;;;;;;;8.62;62.80;98468.47;5073837;27;97032;-74
2023/03/10 07:15:30;;;;;;;18.80;9.05;;;;;;;9.16;62.21;98461.44;5079838;27;98933;-73
2023/03/10 07:17:57;;;;;;;15.07;9.32;;;;;;;9.34;61.55;98458.50;5084036;27;98942;-77
2023/03/10 07:20:25;;;;;;;14.02;8.13;;;;;;;9.29;61.67;98463.25;5078066;27;98607;-73
2023/03/10 07:22:52;;;;;;;14.98;9.00;;;;;;;9.34;61.71;98466.41;5081964;27;96765;-72
2023/03/10 07:25:18;;;;;;;17.35;9.10;;;;;;;9.56;61.26;98461.41;5079230;27;98345;-73
2023/03/10 07:27:45;;;;;;;14.73;8.75;;;;;;;9.50;61.11;98467.09;5082294;27;98251;-73
2023/03/10 07:30:12;;;;;;;17.65;8.70;;;;;;;9.41;61.00;98473.81;5078307;27;99179;-73
2023/03/10 07:32:38;;;;;;;19.80;10.02;;;;;;;9.24;62.32;98468.84;5081615;27;97087;-73
2023/03/10 07:35:09;;;;;;;18.33;8.82;;;;;;;9.41;61.55;98472.97;5079828;27;96879;-73
2023/03/10 07:37:38;;;;;;;16.95;9.45;;;;;;;9.25;62.32;98461.78;5086188;27;97629;-73
2023/03/10 07:40:07;;;;;;;16.80;9.00;;;;;;;9.58;61.48;98465.59;5076020;27;98832;-73
2023/03/10 07:42:34;;;;;;;30.88;18.33;;;;;;;9.70;60.84;98458.69;5083692;27;96841;-73
2023/03/10 07:45:00;;;;;;;16.92;10.32;;;;;;;9.39;61.89;98470.44;5080698;27;97304;-72
2023/03/10 07:47:27;;;;;;;17.90;9.50;;;;;;;9.62;61.13;98465.41;5076931;27;98784;-76
2023/03/10 07:49:54;;;;;;;19.83;9.25;;;;;;;9.93;60.09;98449.19;5074384;27;97579;-74
2023/03/10 07:52:20;;;;;;;24.80;10.57;;;;;;;9.87;60.68;98453.09;5079537;27;97891;-74
2023/03/10 07:54:48;;;;;;;17.70;10.27;;;;;;;9.79;60.82;98458.03;5073542;27;96952;-74
2023/03/10 07:57:15;;;;;;;17.17;9.55;;;;;;;9.36;62.17;98475.06;5074218;27;100100;-72
2023/03/10 07:59:43;;;;;;;15.90;8.88;;;;;;;9.33;62.13;98468.19;5075561;27;99188;-73
2023/03/10 08:02:11;;;;;;;18.15;9.93;;;;;;;9.80;61.69;98445.69;5076777;27;98157;-73
2023/03/10 08:04:38;;;;;;;20.13;10.27;;;;;;;9.57;61.98;98434.09;5083564;27;98444;-73
2023/03/10 08:07:04;;;;;;;20.25;12.25;;;;;;;9.32;63.30;98457.78;5075597;27;99165;-73
2023/03/10 08:09:31;;;;;;;16.20;9.23;;;;;;;9.08;64.48;98454.97;5082719;27;98870;-73
2023/03/10 08:12:00;;;;;;;17.92;10.27;;;;;;;9.07;64.54;98466.44;5081211;27;98900;-72
2023/03/10 08:14:28;;;;;;;17.50;9.75;;;;;;;9.57;62.86;98453.41;5081602;27;96817;-74
2023/03/10 08:16:56;;;;;;;16.88;10.13;;;;;;;9.87;62.75;98449.59;5078430;27;98772;-73
2023/03/10 08:19:22;;;;;;;16.63;10.25;;;;;;;10.05;61.65;98456.25;5076628;27;98834;-72
2023/03/10 08:21:49;;;;;;;21.48;9.68;;;;;;;10.33;61.52;98449.91;5080869;27;98423;-73
2023/03/10 08:24:16;;;;;;;26.25;15.30;;;;;;;10.29;61.18;98456.38;5083418;27;99290;-74
2023/03/10 08:26:42;;;;;;;17.95;10.82;;;;;;;10.43;60.70;98448.34;5083092;27;100544;-76
2023/03/10 08:29:10;;;;;;;18.52;11.20;;;;;;;9.98;61.82;98453.19;5081137;27;97711;-73
2023/03/10 08:31:37;;;;;;;17.73;10.00;;;;;;;10.32;61.61;98448.22;5082248;27;97158;-74
2023/03/10 08:34:03;;;;;;;16.58;10.20;;;;;;;10.27;61.36;98450.34;5080864;27;97286;-75
2023/03/10 08:36:30;;;;;;;16.90;9.30;;;;;;;10.39;61.31;98452.13;5079433;27;99141;-74
2023/03/10 08:38:59;;;;;;;16.05;10.10;;;;;;;10.25;61.79;98460.16;5074626;27;98819;-74
2023/03/10 08:41:27;;;;;;;16.25;9.70;;;;;;;10.10;62.47;98450.66;5075958;27;97117;-73
2023/03/10 08:43:55;;;;;;;20.42;11.15;;;;;;;10.19;62.03;98453.53;5081425;27;97750;-73
2023/03/10 08:46:26;;;;;;;15.05;10.05;;;;;;;10.40;61.94;98461.72;5074842;27;98203;-73
2023/03/10 08:48:53;;;;;;;25.58;11.15;;;;;;;10.75;60.98;98460.06;5077558;27;98679;-74
2023/03/10 08:51:20;;;;;;;16.83;9.70;;;;;;;10.78;60.63;98459.84;5076766;27;97160;-73
2023/03/10 08:53:49;;;;;;;18.73;10.40;;;;;;;11.31;59.67;98462.97;5081002;27;96864;-74
2023/03/10 08:56:16;;;;;;;19.25;11.30;;;;;;;11.00;60.65;98474.13;5075869;27;99301;-73
2023/03/10 08:58:42;;;;;;;18.02;11.07;;;;;;;11.26;59.48;98474.88;5075018;27;99294;-73
2023/03/10 09:01:10;;;;;;;16.38;9.80;;;;;;;10.83;60.78;98474.53;5077425;27;97285;-74
2023/03/10 09:03:40;;;;;;;16.95;10.30;;;;;;;11.23;59.31;98478.56;5077659;27;97380;-74
2023/03/10 09:06:07;;;;;;;17.15;10.32;;;;;;;11.21;59.65;98493.72;5080160;27;99324;-74
2023/03/10 09:08:34;;;;;;;21.23;10.98;;;;;;;11.36;59.53;98481.97;5086151;27;98910;-77
2023/03/10 09:11:01;;;;;;;18.65;11.70;;;;;;;11.46;59.11;98483.00;5078385;27;97065;-77
2023/03/10 09:13:28;;;;;;;22.00;10.90;;;;;;;11.43;59.39;98496.44;5076405;27;98474;-76
2023/03/10 09:15:54;;;;;;;22.17;12.02;;;;;;;11.02;61.31;98493.38;5079164;27;98191;-76
2023/03/10 09:18:21;;;;;;;20.00;11.43;;;;;;;11.08;61.50;98483.19;5085297;27;101181;-76
2023/03/10 09:20:49;;;;;;;17.20;11.07;;;;;;;11.23;60.52;98490.94;5081488;27;96772;-76
2023/03/10 09:23:16;;;;;;;22.70;12.05;;;;;;;10.97;61.65;98482.28;5079940;27;96877;-77
2023/03/10 09:25:43;;;;;;;19.35;11.30;;;;;;;11.57;60.60;98485.69;5083092;27;99123;-75
2023/03/10 09:28:10;;;;;;;16.10;11.05;;;;;;;11.88;59.44;98483.41;5083725;27;98578;-75
2023/03/10 09:30:44;;;;;;;22.35;12.80;;;;;;;11.41;60.33;98489.59;5077299;27;97087;-77
2023/03/10 09:33:15;;;;;;;19.55;11.77;;;;;;;11.99;59.08;98488.72;5073888;27;98246;-75
2023/03/10 09:35:42;;;;;;;18.45;11.10;;;;;;;12.12;58.37;98486.81;5074438;27;99296;-78
2023/03/10 09:38:09;;;;;;;20.05;11.50;;;;;;;12.18;58.63;98485.47;5074513;27;97548;-78
2023/03/10 09:40:43;;;;;;;17.00;10.88;;;;;;;12.35;58.36;98493.78;5069962;27;97349;-78
2023/03/10 09:43:14;;;;;;;18.95;10.43;;;;;;;12.84;58.00;98486.44;5079144;27;97125;-78
2023/03/10 09:45:47;;;;;;;21.02;11.52;;;;;;;13.03;56.59;98492.78;5081020;27;99479;-76
2023/03/10 09:48:28;;;;;;;18.52;11.77;;;;;;;13.77;54.92;98491.09;5080728;27;99239;-77
2023/03/10 09:50:55;;;;;;;19.02;11.57;;;;;;;13.98;54.16;98495.56;5080980;27;97135;-75
2023/03/10 09:53:40;;;;;;;19.27;11.55;;;;;;;13.76;55.03;98496.50;5081365;27;97116;-76
2023/03/10 09:56:10;;;;;;;18.45;11.57;;;;;;;12.84;57.12;98507.63;5076645;27;102312;-72
2023/03/10 09:58:41;;;;;;;19.00;11.93;;;;;;;13.12;56.34;98520.34;5075711;27;99208;-77
2023/03/10 10:01:15;;;;;;;20.23;12.40;;;;;;;12.69;58.58;98514.97;5073048;27;97435;-73
2023/03/10 10:03:44;;;;;;;24.27;12.07;;;;;;;12.42;59.31;98512.69;5074502;27;96814;-74
2023/03/10 10:06:17;;;;;;;19.60;12.63;;;;;;;12.63;58.85;98520.78;5077090;27;99519;-75
2023/03/10 10:08:50;;;;;;;19.15;12.10;;;;;;;12.48;59.68;98524.63;5076165;27;101300;-74
2023/03/10 10:11:18;;;;;;;24.25;13.40;;;;;;;13.06;58.30;98531.47;5080672;27;98295;-73
2023/03/10 10:13:45;;;;;;;22.10;14.00;;;;;;;13.02;57.42;98520.25;5081466;27;98552;-73
2023/03/10 10:16:23;;;;;;;25.08;14.60;;;;;;;12.90;57.93;98523.88;5076990;27;101161;-74
2023/03/10 10:18:58;;;;;;;34.05;15.20;;;;;;;13.14;57.01;98526.38;5077667;27;98342;-73
2023/03/10 10:21:35;;;;;;;24.45;13.82;;;;;;;13.32;56.99;98526.72;5080990;27;97745;-74
2023/03/10 10:24:04;;;;;;;25.73;14.02;;;;;;;13.51;56.18;98538.34;5080802;27;98063;-76
2023/03/10 10:26:30;;;;;;;23.83;14.35;;;;;;;13.52;56.14;98532.06;5077387;27;98920;-77
2023/03/10 10:28:58;;;;;;;25.50;14.10;;;;;;;13.63;55.87;98528.53;5079175;27;99854;-76
2023/03/10 10:31:26;;;;;;;19.85;12.80;;;;;;;13.95;55.40;98532.00;5072192;27;97708;-76
2023/03/10 10:33:56;;;;;;;22.70;13.43;;;;;;;13.87;54.72;98533.59;5080430;27;97315;-76
2023/03/10 10:36:23;;;;;;;19.33;12.57;;;;;;;13.90;54.64;98539.50;5073471;27;99311;-77
2023/03/10 10:38:52;;;;;;;22.40;13.48;;;;;;;13.75;55.42;98546.09;5077641;27;100919;-76
2023/03/10 10:41:24;;;;;;;21.05;12.38;;;;;;;13.65;55.76;98545.19;5076348;27;96823;-76
2023/03/10 10:43:52;;;;;;;30.30;16.55;;;;;;;13.91;55.00;98535.88;5073548;27;96880;-76
2023/03/10 10:46:25;;;;;;;23.55;12.80;;;;;;;14.01;54.80;98541.25;5075336;27;99876;-76
2023/03/10 10:49:02;;;;;;;18.60;11.80;;;;;;;13.98;54.40;98552.97;5069298;27;98953;-73
2023/03/10 10:51:31;;;;;;;20.10;12.52;;;;;;;13.98;55.02;98555.63;5082734;27;97874;-76
2023/03/10 10:53:59;;;;;;;20.73;12.15;;;;;;;13.56;55.53;98557.38;5085371;27;97316;-76
2023/03/10 10:56:28;;;;;;;20.42;12.50;;;;;;;13.88;55.18;98556.53;5090008;27;99251;-76
2023/03/10 10:59:03;;;;;;;18.52;12.80;;;;;;;13.90;55.27;98560.75;5090120;27;98865;-76
2023/03/10 11:01:47;;;;;;;21.65;13.07;;;;;;;13.75;55.82;98559.38;5088399;27;97859;-75
2023/03/10 11:04:14;;;;;;;27.20;14.60;;;;;;;13.67;55.47;98559.16;5078505;27;96737;-76
2023/03/10 11:06:40;;;;;;;25.52;14.13;;;;;;;13.33;57.30;98560.22;5074126;27;98850;-75
2023/03/10 11:09:12;;;;;;;24.83;13.73;;;;;;;13.66;56.68;98564.56;5082641;27;98847;-77
2023/03/10 11:11:49;;;;;;;24.63;13.77;;;;;;;13.54;57.12;98561.97;5082069;27;96758;-75
2023/03/10 11:14:34;;;;;;;27.40;13.30;;;;;;;13.37;57.53;98562.50;5076303;27;96729;-75
2023/03/10 11:17:06;;;;;;;22.65;13.18;;;;;;;13.27;58.20;98566.03;5077786;27;97312;-76
2023/03/10 11:19:41;;;;;;;19.48;11.52;;;;;;;13.16;58.57;98554.47;5079507;27;99054;-75
2023/03/10 11:22:21;;;;;;;18.58;12.82;;;;;;;13.47;58.28;98546.69;5083480;27;97009;-76
2023/03/10 11:24:55;;;;;;;21.90;12.60;;;;;;;13.57;58.41;98552.94;5081542;27;96911;-75
2023/03/10 11:27:37;;;;;;;19.92;13.65;;;;;;;13.75;57.73;98540.78;5072464;27;99220;-75
2023/03/10 11:30:12;;;;;;;20.17;12.73;;;;;;;13.91;57.52;98546.47;5078665;27;101908;-75
2023/03/10 11:32:53;;;;;;;20.60;12.05;;;;;;;13.52;58.94;98561.25;5076195;27;97400;-75